createdAt,value
2023-04-02T00:26:55.517Z,101484.19
2023-04-02T00:40:44.056Z,101497.97
2023-04-02T01:01:57.492Z,101510.44
2023-04-02T01:08:16.621Z,101519.63
2023-04-02T01:15:17.728Z,101545.69
2023-04-02T01:21:37.941Z,101548.78
2023-04-02T01:40:46.922Z,101595.75
2023-04-02T02:01:18.887Z,101600.81
2023-04-02T02:07:24.094Z,101600.47
2023-04-02T02:14:30.721Z,101606.31
2023-04-02T02:28:05.888Z,101626.38
2023-04-02T02:34:55.087Z,101614.66
2023-04-02T02:41:45.305Z,101629.81
2023-04-02T03:03:44.114Z,101676.31
2023-04-02T03:09:53.598Z,101686.97
2023-04-02T03:16:09.738Z,101688.91
2023-04-02T03:22:36.629Z,101704.63
2023-04-02T03:28:37.499Z,101694.88
2023-04-02T03:34:38.518Z,101715.41
2023-04-02T03:40:52.900Z,101721.50
2023-04-02T03:47:19.108Z,101731.66
2023-04-02T03:53:16.323Z,101726.72
2023-04-02T03:59:25.876Z,101729.84
2023-04-02T04:05:30.998Z,101755.38
2023-04-02T04:11:42.953Z,101769.94
2023-04-02T04:18:47.407Z,101767.25
2023-04-02T04:25:12.662Z,101765.63
2023-04-02T04:55:25.549Z,101808.34
2023-04-02T05:24:57.152Z,101864.00
2023-04-02T05:31:26.399Z,101870.44
2023-04-02T05:37:50.765Z,101884.00
2023-04-02T06:04:30.460Z,101929.81
2023-04-02T06:10:25.260Z,101930.31
2023-04-02T06:16:22.215Z,101950.59
2023-04-02T06:22:28.490Z,101957.06
2023-04-02T06:28:32.167Z,101956.88
2023-04-02T06:34:40.862Z,101960.09
2023-04-02T06:40:35.974Z,101971.19
2023-04-02T06:46:46.103Z,101962.44
2023-04-02T06:52:46.961Z,101977.72
2023-04-02T06:58:37.319Z,101982.69
2023-04-02T07:04:28.068Z,101994.78
2023-04-02T07:10:16.789Z,102011.31
2023-04-02T07:16:23.734Z,102024.00
2023-04-02T07:29:44.032Z,102025.19
2023-04-02T07:35:31.663Z,102020.84
2023-04-02T07:41:58.364Z,102045.47
2023-04-02T07:48:53.501Z,102054.72
2023-04-02T07:54:52.610Z,102061.00
2023-04-02T08:00:45.317Z,102070.91
2023-04-02T08:06:32.417Z,102080.84
2023-04-02T08:12:22.054Z,102083.91
2023-04-02T08:18:17.361Z,102108.75
2023-04-02T08:24:04.703Z,102104.47
2023-04-02T08:29:55.479Z,102107.56
2023-04-02T08:35:47.311Z,102114.56
2023-04-02T08:41:45.911Z,102142.56
2023-04-02T08:47:38.225Z,102159.94
2023-04-02T08:53:29.776Z,102165.41
2023-04-02T08:59:19.501Z,102171.41
2023-04-02T09:05:15.785Z,102176.00
2023-04-02T09:11:07.594Z,102173.97
2023-04-02T09:17:04.705Z,102186.25
2023-04-02T09:22:53.359Z,102185.53
2023-04-02T09:28:41.853Z,102191.09
2023-04-02T09:34:30.732Z,102204.06
2023-04-02T09:40:29.112Z,102194.19
2023-04-02T09:46:26.026Z,102195.38
2023-04-02T09:52:30.200Z,102202.41
2023-04-02T10:04:51.929Z,102226.31
2023-04-02T10:10:44.193Z,102240.06
2023-04-02T10:16:57.341Z,102238.34
2023-04-02T10:22:52.080Z,102247.53
2023-04-02T10:29:14.277Z,102250.34
2023-04-02T10:35:24.215Z,102249.06
2023-04-02T10:41:31.982Z,102249.84
2023-04-02T10:54:43.670Z,102263.81
2023-04-02T11:00:46.664Z,102269.63
2023-04-02T11:07:07.584Z,102276.84
2023-04-02T11:13:05.645Z,102277.69
2023-04-02T11:19:23.831Z,102279.44
2023-04-02T11:25:22.299Z,102275.47
2023-04-02T11:31:28.144Z,102278.38
2023-04-02T11:37:44.970Z,102284.13
2023-04-02T11:43:35.970Z,102290.59
2023-04-02T11:49:40.977Z,102303.84
2023-04-02T11:55:32.340Z,102307.69
2023-04-02T12:01:25.494Z,102304.94
2023-04-02T12:07:39.995Z,102317.84
2023-04-02T12:13:39.414Z,102329.59
2023-04-02T12:19:38.356Z,102326.13
2023-04-02T12:26:10.676Z,102328.53
2023-04-02T12:32:00.098Z,102328.44
2023-04-02T12:37:52.962Z,102320.66
2023-04-02T12:43:41.153Z,102326.00
2023-04-02T12:49:42.935Z,102339.13
2023-04-02T12:55:37.389Z,102333.06
2023-04-02T13:08:35.603Z,102336.53
2023-04-02T13:14:42.097Z,102344.34
2023-04-02T13:20:45.227Z,102353.28
2023-04-02T13:26:32.014Z,102362.19
2023-04-02T13:32:20.177Z,102336.00
2023-04-02T13:38:07.211Z,102336.56
2023-04-02T13:44:31.391Z,102358.59
2023-04-02T13:50:57.027Z,102342.94
2023-04-02T14:03:12.336Z,102356.69
2023-04-02T14:09:34.667Z,102354.94
2023-04-02T14:16:19.368Z,102371.50
2023-04-02T14:22:52.072Z,102352.19
2023-04-02T14:30:36.966Z,102366.03
2023-04-02T14:36:48.691Z,102341.16
2023-04-02T14:43:03.684Z,102345.34
2023-04-02T15:02:59.733Z,102350.97
2023-04-02T15:09:15.465Z,102353.34
2023-04-02T15:15:45.698Z,102343.22
2023-04-02T15:21:57.564Z,102346.59
2023-04-02T15:28:28.198Z,102342.13
2023-04-02T15:34:34.108Z,102343.88
2023-04-02T15:41:04.137Z,102339.53
2023-04-02T15:47:24.434Z,102331.09
2023-04-02T15:53:27.000Z,102330.84
2023-04-02T15:59:17.772Z,102323.59
2023-04-02T16:05:23.312Z,102328.69
2023-04-02T16:11:12.796Z,102335.34
2023-04-02T16:17:17.666Z,102325.34
2023-04-02T16:23:21.186Z,102331.50
2023-04-02T16:29:20.298Z,102338.81
2023-04-02T16:35:43.104Z,102368.06
2023-04-02T16:41:36.330Z,102374.97
2023-04-02T16:47:26.105Z,102365.69
2023-04-02T16:53:24.189Z,102372.19
2023-04-02T16:59:20.330Z,102388.22
2023-04-02T17:05:34.424Z,102388.72
2023-04-02T17:11:26.092Z,102387.00
2023-04-02T17:17:15.744Z,102399.91
2023-04-02T17:23:05.719Z,102419.50
2023-04-02T17:28:55.111Z,102427.66
2023-04-02T17:34:42.139Z,102422.94
2023-04-02T17:40:33.853Z,102425.94
2023-04-02T17:46:39.416Z,102451.47
2023-04-02T17:52:36.015Z,102446.50
2023-04-02T17:58:58.986Z,102449.41
2023-04-02T18:04:48.941Z,102462.16
2023-04-02T18:10:44.453Z,102478.00
2023-04-02T18:16:59.580Z,102485.13
2023-04-02T18:23:01.133Z,102495.22
2023-04-02T18:29:25.792Z,102496.03
2023-04-02T18:35:22.627Z,102511.72
2023-04-02T18:41:48.375Z,102520.47
2023-04-02T18:47:59.285Z,102525.53
2023-04-02T18:54:09.758Z,102539.13
2023-04-02T19:00:25.822Z,102588.75
2023-04-02T19:06:22.226Z,102599.31
2023-04-02T19:12:22.308Z,102619.00
2023-04-02T19:18:32.135Z,102623.84
2023-04-02T19:24:22.743Z,102642.53
2023-04-02T19:30:28.550Z,102640.13
2023-04-02T19:36:41.024Z,102656.97
2023-04-02T19:42:45.617Z,102667.53
2023-04-02T19:48:52.357Z,102678.88
2023-04-02T19:54:41.824Z,102689.63
2023-04-02T20:00:28.921Z,102682.75
2023-04-02T20:06:17.024Z,102689.19
2023-04-02T20:12:05.694Z,102711.69
2023-04-02T20:17:53.391Z,102707.19
2023-04-02T20:23:40.795Z,102699.69
2023-04-02T20:29:29.471Z,102696.69
2023-04-02T20:35:16.326Z,102713.91
2023-04-02T20:41:05.191Z,102716.47
2023-04-02T20:46:52.660Z,102723.13
2023-04-02T20:52:44.538Z,102726.38
2023-04-02T20:58:33.195Z,102732.00
2023-04-02T21:04:22.766Z,102740.50
2023-04-02T21:10:10.480Z,102757.34
2023-04-02T21:16:01.542Z,102753.34
2023-04-02T21:21:48.774Z,102764.00
2023-04-02T21:27:37.273Z,102766.13
2023-04-02T21:33:27.901Z,102746.84
2023-04-02T21:39:25.771Z,102746.09
2023-04-02T21:45:14.604Z,102756.88
2023-04-02T21:51:14.385Z,102747.19
2023-04-02T21:57:06.192Z,102752.09
2023-04-02T22:03:03.456Z,102750.00
2023-04-02T22:08:57.024Z,102754.88
2023-04-02T22:14:46.795Z,102754.84
2023-04-02T22:20:38.853Z,102754.66
2023-04-02T22:26:33.852Z,102744.97
2023-04-02T22:32:21.880Z,102767.34
2023-04-02T22:38:09.304Z,102764.72
2023-04-02T22:43:57.107Z,102755.03
2023-04-02T22:49:47.337Z,102761.53
2023-04-02T22:55:35.559Z,102767.69
2023-04-02T23:01:35.063Z,102763.22
2023-04-02T23:07:22.844Z,102754.78
2023-04-02T23:13:26.895Z,102741.88
2023-04-02T23:19:17.960Z,102746.38
2023-04-02T23:25:06.296Z,102755.72
2023-04-02T23:30:53.645Z,102752.63
2023-04-02T23:36:41.480Z,102763.03
2023-04-02T23:42:28.975Z,102741.41
2023-04-02T23:48:17.364Z,102744.22
2023-04-02T23:54:04.728Z,102737.97
2023-04-02T23:59:53.585Z,102738.97
